createdAt,value
2017-09-10T00:00:46.610Z,994.3
2017-09-10T00:01:48.998Z,994.3
2017-09-10T00:02:51.386Z,994.3
2017-09-10T00:03:53.790Z,994.2
2017-09-10T00:04:56.191Z,994.3
2017-09-10T00:05:58.582Z,994.2
2017-09-10T00:07:00.986Z,994.2
2017-09-10T00:08:03.383Z,994.2
2017-09-10T00:09:05.784Z,994.2
2017-09-10T00:10:08.187Z,994.2
2017-09-10T00:11:10.570Z,994.2
2017-09-10T00:12:12.976Z,994.2
2017-09-10T00:13:15.367Z,994.2
2017-09-10T00:14:17.784Z,994.2
2017-09-10T00:15:20.194Z,994.3
2017-09-10T00:16:22.588Z,994.3
2017-09-10T00:17:24.980Z,994.3
2017-09-10T00:18:27.376Z,994.3
2017-09-10T00:19:29.770Z,994.3
2017-09-10T00:20:32.175Z,994.3
2017-09-10T00:21:34.567Z,994.3
2017-09-10T00:22:36.960Z,994.3
2017-09-10T00:23:39.360Z,994.3
2017-09-10T00:24:41.750Z,994.4
2017-09-10T00:25:44.159Z,994.4
2017-09-10T00:26:46.570Z,994.4
2017-09-10T00:27:48.957Z,994.4
2017-09-10T00:28:51.350Z,994.4
2017-09-10T00:29:53.755Z,994.4
2017-09-10T00:30:56.156Z,994.4
2017-09-10T00:31:58.551Z,994.5
2017-09-10T00:33:01.281Z,994.4
2017-09-10T00:34:03.675Z,994.4
2017-09-10T00:35:06.078Z,994.4
2017-09-10T00:36:08.478Z,994.3
2017-09-10T00:37:10.876Z,994.4
2017-09-10T00:38:13.288Z,994.4
2017-09-10T00:39:15.677Z,994.4
2017-09-10T00:40:18.079Z,994.4
2017-09-10T00:41:20.469Z,994.4
2017-09-10T00:42:23.194Z,994.4
2017-09-10T00:43:25.590Z,994.4
2017-09-10T00:44:27.996Z,994.4
2017-09-10T00:45:30.390Z,994.4
2017-09-10T00:46:32.783Z,994.4
2017-09-10T00:47:35.174Z,994.4
2017-09-10T00:48:37.570Z,994.4
2017-09-10T00:49:39.960Z,994.4
2017-09-10T00:50:42.361Z,994.4
2017-09-10T00:51:44.757Z,994.4
2017-09-10T00:52:47.150Z,994.4
2017-09-10T00:53:49.556Z,994.4
2017-09-10T00:54:51.955Z,994.4
2017-09-10T00:55:54.355Z,994.5
2017-09-10T00:56:57.092Z,994.5
2017-09-10T00:57:59.499Z,994.5
2017-09-10T00:59:01.893Z,994.5
2017-09-10T01:00:04.292Z,994.5
2017-09-10T01:01:07.028Z,994.5
2017-09-10T01:02:09.418Z,994.5
2017-09-10T01:03:12.162Z,994.5
2017-09-10T01:04:14.560Z,994.5
2017-09-10T01:05:16.951Z,994.6
2017-09-10T01:06:19.349Z,994.6
2017-09-10T01:07:21.743Z,994.6
2017-09-10T01:08:24.136Z,994.7
2017-09-10T01:09:26.536Z,994.8
2017-09-10T01:10:28.934Z,994.7
2017-09-10T01:11:31.686Z,994.7
2017-09-10T01:12:34.093Z,994.7
2017-09-10T01:13:36.483Z,994.8
2017-09-10T01:14:38.883Z,994.8
2017-09-10T01:15:41.278Z,994.7
2017-09-10T01:16:43.683Z,994.7
2017-09-10T01:17:46.083Z,994.7
2017-09-10T01:18:48.467Z,994.7
2017-09-10T01:19:50.890Z,994.7
2017-09-10T01:20:53.277Z,994.7
2017-09-10T01:21:55.666Z,994.7
2017-09-10T01:22:58.070Z,994.6
2017-09-10T01:24:00.460Z,994.7
2017-09-10T01:25:02.860Z,994.7
2017-09-10T01:26:05.258Z,994.7
2017-09-10T01:27:08.037Z,994.7
2017-09-10T01:28:10.445Z,994.7
2017-09-10T01:29:12.857Z,994.7
2017-09-10T01:30:15.247Z,994.7
2017-09-10T01:31:17.646Z,994.7
2017-09-10T01:32:20.417Z,994.7
2017-09-10T01:33:22.815Z,994.7
2017-09-10T01:34:25.569Z,994.6
2017-09-10T01:35:28.356Z,994.7
2017-09-10T01:36:30.757Z,994.7
2017-09-10T01:37:33.503Z,994.7
2017-09-10T01:38:35.895Z,994.7
2017-09-10T01:39:38.289Z,994.8
2017-09-10T01:40:40.688Z,994.8
2017-09-10T01:41:43.079Z,994.8
2017-09-10T01:42:45.468Z,994.8
2017-09-10T01:43:47.876Z,994.8
2017-09-10T01:44:50.260Z,994.8
2017-09-10T01:45:52.673Z,994.8
2017-09-10T01:46:55.066Z,994.8
2017-09-10T01:47:57.457Z,994.9
2017-09-10T01:48:59.856Z,994.9
2017-09-10T01:50:02.262Z,994.9
2017-09-10T01:51:04.987Z,994.8
2017-09-10T01:52:07.391Z,994.8
2017-09-10T01:53:09.771Z,994.8
2017-09-10T01:54:12.170Z,994.9
2017-09-10T01:55:14.575Z,994.9
2017-09-10T01:56:16.964Z,994.9
2017-09-10T01:57:19.355Z,994.8
2017-09-10T01:58:21.747Z,994.9
2017-09-10T01:59:24.134Z,994.9
2017-09-10T02:00:26.540Z,994.9
2017-09-10T02:01:29.273Z,994.9
2017-09-10T02:02:31.671Z,994.9
2017-09-10T02:03:34.065Z,994.9
2017-09-10T02:04:36.463Z,995
2017-09-10T02:05:38.878Z,995
2017-09-10T02:06:41.285Z,994.9
2017-09-10T02:07:44.020Z,994.9
2017-09-10T02:08:46.415Z,995
2017-09-10T02:09:48.832Z,995
2017-09-10T02:10:51.258Z,995
2017-09-10T02:11:53.601Z,995
2017-09-10T02:12:56.001Z,995
2017-09-10T02:13:58.398Z,995
2017-09-10T02:15:00.793Z,995
2017-09-10T02:16:03.187Z,994.9
2017-09-10T02:17:05.590Z,994.9
2017-09-10T02:18:07.976Z,995
2017-09-10T02:19:10.372Z,994.9
2017-09-10T02:20:12.766Z,995
2017-09-10T02:21:15.521Z,995
2017-09-10T02:22:17.912Z,995
2017-09-10T02:23:20.646Z,995
2017-09-10T02:24:23.378Z,995
2017-09-10T02:25:25.772Z,995
2017-09-10T02:26:28.170Z,995
2017-09-10T02:27:30.912Z,994.9
2017-09-10T02:28:33.299Z,995
2017-09-10T02:29:35.691Z,994.9
2017-09-10T02:30:38.085Z,995
2017-09-10T02:31:40.501Z,995
2017-09-10T02:32:42.896Z,994.9
2017-09-10T02:33:45.285Z,995
2017-09-10T02:34:47.679Z,995
2017-09-10T02:35:50.068Z,995
2017-09-10T02:36:52.462Z,995
2017-09-10T02:37:54.864Z,995
2017-09-10T02:38:57.247Z,995
2017-09-10T02:39:59.647Z,995
2017-09-10T02:41:02.035Z,995.1
2017-09-10T02:42:04.437Z,995.1
2017-09-10T02:43:06.824Z,995.2
2017-09-10T02:44:09.222Z,995.2
2017-09-10T02:45:11.621Z,995.2
2017-09-10T02:46:14.019Z,995.2
2017-09-10T02:47:16.414Z,995.2
2017-09-10T02:48:18.812Z,995.2
2017-09-10T02:49:21.212Z,995.2
2017-09-10T02:50:23.604Z,995.2
2017-09-10T02:51:26.006Z,995.2
2017-09-10T02:52:28.391Z,995.2
2017-09-10T02:53:31.122Z,995.2
2017-09-10T02:54:33.516Z,995.2
2017-09-10T02:55:35.916Z,995.2
2017-09-10T02:56:38.313Z,995.2
2017-09-10T02:57:40.710Z,995.3
2017-09-10T02:58:43.092Z,995.2
2017-09-10T02:59:45.498Z,995.3
2017-09-10T03:00:47.888Z,995.2
2017-09-10T03:01:50.285Z,995.2
2017-09-10T03:02:52.680Z,995.2
2017-09-10T03:03:55.071Z,995.2
2017-09-10T03:04:57.463Z,995.1
2017-09-10T03:05:59.860Z,995.2
2017-09-10T03:07:02.583Z,995.1
2017-09-10T03:08:04.983Z,995.1
2017-09-10T03:09:07.379Z,995.1
2017-09-10T03:10:09.778Z,995.1
2017-09-10T03:11:12.170Z,995.1
2017-09-10T03:12:14.564Z,995.1
2017-09-10T03:13:16.958Z,995.1
2017-09-10T03:14:19.350Z,995.2
2017-09-10T03:15:21.742Z,995.1
2017-09-10T03:16:24.143Z,995.1
2017-09-10T03:17:26.547Z,995.1
2017-09-10T03:18:28.940Z,995.1
2017-09-10T03:19:31.331Z,995.1
2017-09-10T03:20:33.727Z,995.1
2017-09-10T03:21:36.457Z,995.1
2017-09-10T03:22:38.849Z,995.1
2017-09-10T03:23:41.587Z,995.1
2017-09-10T03:24:43.971Z,995.1
2017-09-10T03:25:46.386Z,995.2
2017-09-10T03:26:48.779Z,995.2
2017-09-10T03:27:51.166Z,995.2
2017-09-10T03:28:53.559Z,995.2
2017-09-10T03:29:55.951Z,995.2
2017-09-10T03:30:58.349Z,995.2
2017-09-10T03:32:00.745Z,995.2
2017-09-10T03:33:03.146Z,995.2
2017-09-10T03:34:05.539Z,995.2
2017-09-10T03:35:07.933Z,995.2
2017-09-10T03:36:10.327Z,995.2
2017-09-10T03:37:12.726Z,995.3
2017-09-10T03:38:15.112Z,995.2
2017-09-10T03:39:17.504Z,995.2
2017-09-10T03:40:19.903Z,995.2
2017-09-10T03:41:22.295Z,995.2
2017-09-10T03:42:24.684Z,995.2
2017-09-10T03:43:27.074Z,995.2
2017-09-10T03:44:29.470Z,995.2
2017-09-10T03:45:31.866Z,995.3
2017-09-10T03:46:34.259Z,995.3
2017-09-10T03:47:36.662Z,995.3
2017-09-10T03:48:39.056Z,995.3
2017-09-10T03:49:41.445Z,995.3
2017-09-10T03:50:43.853Z,995.3
2017-09-10T03:51:46.260Z,995.3
2017-09-10T03:52:48.990Z,995.3
2017-09-10T03:53:52.094Z,995.3
2017-09-10T03:54:54.484Z,995.3
2017-09-10T03:55:56.879Z,995.3
2017-09-10T03:56:59.280Z,995.3
2017-09-10T03:58:01.656Z,995.3
2017-09-10T03:59:04.063Z,995.3
2017-09-10T04:00:06.454Z,995.4
2017-09-10T04:01:08.844Z,995.4
2017-09-10T04:02:11.580Z,995.4
2017-09-10T04:03:13.970Z,995.4
2017-09-10T04:04:16.363Z,995.4
2017-09-10T04:05:18.762Z,995.4
2017-09-10T04:06:21.150Z,995.4
2017-09-10T04:07:23.898Z,995.4
2017-09-10T04:08:26.285Z,995.4
2017-09-10T04:09:28.698Z,995.5
2017-09-10T04:10:31.091Z,995.5
2017-09-10T04:11:33.829Z,995.5
2017-09-10T04:12:36.218Z,995.5
2017-09-10T04:13:38.609Z,995.5
2017-09-10T04:14:41.002Z,995.4
2017-09-10T04:15:43.394Z,995.5
2017-09-10T04:16:46.139Z,995.5
2017-09-10T04:17:48.530Z,995.5
2017-09-10T04:18:50.921Z,995.5
2017-09-10T04:19:53.305Z,995.5
2017-09-10T04:20:55.703Z,995.6
2017-09-10T04:21:58.429Z,995.5
2017-09-10T04:23:00.821Z,995.6
2017-09-10T04:24:03.217Z,995.5
2017-09-10T04:25:05.607Z,995.5
2017-09-10T04:26:08.005Z,995.6
2017-09-10T04:27:10.404Z,995.6
2017-09-10T04:28:12.801Z,995.7
2017-09-10T04:29:15.213Z,995.6
2017-09-10T04:30:17.954Z,995.6
2017-09-10T04:31:20.350Z,995.6
2017-09-10T04:32:22.750Z,995.6
2017-09-10T04:33:25.148Z,995.6
2017-09-10T04:34:27.547Z,995.6
2017-09-10T04:35:29.950Z,995.6
2017-09-10T04:36:32.337Z,995.6
2017-09-10T04:37:34.757Z,995.6
2017-09-10T04:38:37.146Z,995.7
2017-09-10T04:39:39.541Z,995.7
2017-09-10T04:40:41.951Z,995.6
2017-09-10T04:41:44.339Z,995.6
2017-09-10T04:42:46.735Z,995.6
2017-09-10T04:43:49.128Z,995.7
2017-09-10T04:44:51.519Z,995.7
2017-09-10T04:45:53.920Z,995.7
2017-09-10T04:46:56.307Z,995.7
2017-09-10T04:47:58.714Z,995.8
2017-09-10T04:49:01.129Z,995.8
2017-09-10T04:50:03.521Z,995.7
2017-09-10T04:51:05.934Z,995.7
2017-09-10T04:52:08.310Z,995.8
2017-09-10T04:53:10.707Z,995.8
2017-09-10T04:54:13.101Z,995.8
2017-09-10T04:55:15.830Z,995.8
2017-09-10T04:56:18.213Z,995.8
2017-09-10T04:57:20.616Z,995.9
2017-09-10T04:58:23.007Z,995.9
2017-09-10T04:59:25.406Z,995.9
2017-09-10T05:00:27.808Z,995.9
2017-09-10T05:01:30.204Z,995.9
2017-09-10T05:02:32.603Z,996
2017-09-10T05:03:35.010Z,995.9
2017-09-10T05:04:37.398Z,995.9
2017-09-10T05:05:39.805Z,996
2017-09-10T05:06:42.192Z,996
2017-09-10T05:07:44.587Z,995.9
2017-09-10T05:08:46.984Z,996
2017-09-10T05:09:49.378Z,996
2017-09-10T05:10:51.763Z,996
2017-09-10T05:11:54.165Z,996
2017-09-10T05:12:56.565Z,996
2017-09-10T05:13:58.963Z,995.9
2017-09-10T05:15:01.370Z,996
2017-09-10T05:16:03.777Z,995.9
2017-09-10T05:17:06.510Z,995.9
2017-09-10T05:18:08.911Z,995.9
2017-09-10T05:19:11.307Z,995.9
2017-09-10T05:20:13.705Z,995.9
2017-09-10T05:21:16.097Z,996
2017-09-10T05:22:18.537Z,996
2017-09-10T05:23:20.889Z,996
2017-09-10T05:24:23.279Z,996
2017-09-10T05:25:26.015Z,996
2017-09-10T05:26:28.407Z,996
2017-09-10T05:27:30.795Z,996
2017-09-10T05:28:33.190Z,996
2017-09-10T05:29:35.576Z,996
2017-09-10T05:30:37.982Z,996
2017-09-10T05:31:40.382Z,996
2017-09-10T05:32:42.770Z,996.1
2017-09-10T05:33:45.175Z,996.1
2017-09-10T05:34:47.568Z,996.1
2017-09-10T05:35:49.963Z,996.1
2017-09-10T05:36:52.366Z,996
2017-09-10T05:37:55.116Z,996.1
2017-09-10T05:38:57.506Z,996
2017-09-10T05:39:59.900Z,996.1
2017-09-10T05:41:02.288Z,996
2017-09-10T05:42:04.686Z,996
2017-09-10T05:43:07.071Z,996
2017-09-10T05:44:09.459Z,996
2017-09-10T05:45:11.866Z,996
2017-09-10T05:46:14.258Z,996.1
2017-09-10T05:47:16.650Z,996.1
2017-09-10T05:48:19.039Z,996.1
2017-09-10T05:49:21.433Z,996.2
2017-09-10T05:50:23.840Z,996.2
2017-09-10T05:51:26.230Z,996.3
2017-09-10T05:52:28.617Z,996.3
2017-09-10T05:53:31.018Z,996.3
2017-09-10T05:54:33.397Z,996.3
2017-09-10T05:55:35.807Z,996.3
2017-09-10T05:56:38.199Z,996.3
2017-09-10T05:57:40.932Z,996.4
2017-09-10T05:58:43.328Z,996.4
2017-09-10T05:59:45.723Z,996.4
2017-09-10T06:00:48.126Z,996.4
2017-09-10T06:01:50.870Z,996.5
2017-09-10T06:02:53.255Z,996.5
2017-09-10T06:03:55.993Z,996.5
2017-09-10T06:04:58.390Z,996.5
2017-09-10T06:06:00.793Z,996.5
2017-09-10T06:07:03.196Z,996.5
2017-09-10T06:08:05.588Z,996.5
2017-09-10T06:09:07.986Z,996.5
2017-09-10T06:10:10.387Z,996.5
2017-09-10T06:11:12.779Z,996.5
2017-09-10T06:12:15.180Z,996.5
2017-09-10T06:13:17.591Z,996.5
2017-09-10T06:14:19.993Z,996.5
2017-09-10T06:15:22.390Z,996.5
2017-09-10T06:16:24.787Z,996.5
2017-09-10T06:17:27.190Z,996.4
2017-09-10T06:18:29.578Z,996.5
2017-09-10T06:19:31.983Z,996.5
2017-09-10T06:20:34.379Z,996.5
2017-09-10T06:21:36.775Z,996.5
2017-09-10T06:22:39.516Z,996.5
2017-09-10T06:23:41.923Z,996.5
2017-09-10T06:24:44.350Z,996.5
2017-09-10T06:25:46.752Z,996.5
2017-09-10T06:26:49.140Z,996.5
2017-09-10T06:27:51.874Z,996.5
2017-09-10T06:28:54.272Z,996.5
2017-09-10T06:29:56.675Z,996.5
2017-09-10T06:30:59.075Z,996.5
2017-09-10T06:32:01.473Z,996.5
2017-09-10T06:33:03.892Z,996.5
2017-09-10T06:34:06.292Z,996.5
2017-09-10T06:35:08.692Z,996.5
2017-09-10T06:36:11.094Z,996.5
2017-09-10T06:37:13.506Z,996.5
2017-09-10T06:38:15.896Z,996.5
2017-09-10T06:39:18.307Z,996.5
2017-09-10T06:40:21.060Z,996.4
2017-09-10T06:41:23.796Z,996.5
2017-09-10T06:42:26.533Z,996.5
2017-09-10T06:43:28.920Z,996.5
2017-09-10T06:44:31.311Z,996.5
2017-09-10T06:45:33.717Z,996.5
2017-09-10T06:46:36.115Z,996.5
2017-09-10T06:47:38.506Z,996.5
2017-09-10T06:48:40.918Z,996.5
2017-09-10T06:49:43.310Z,996.5
2017-09-10T06:50:45.715Z,996.5
2017-09-10T06:51:48.124Z,996.5
2017-09-10T06:52:50.863Z,996.4
2017-09-10T06:53:53.263Z,996.4
2017-09-10T06:54:55.677Z,996.5
2017-09-10T06:55:58.082Z,996.5
2017-09-10T06:57:00.500Z,996.4
2017-09-10T06:58:02.898Z,996.5
2017-09-10T06:59:05.296Z,996.5
2017-09-10T07:00:07.714Z,996.5
2017-09-10T07:01:10.131Z,996.5
2017-09-10T07:02:12.527Z,996.5
2017-09-10T07:03:14.932Z,996.5
2017-09-10T07:04:17.344Z,996.5
2017-09-10T07:05:19.748Z,996.5
2017-09-10T07:06:22.150Z,996.5
2017-09-10T07:07:24.554Z,996.5
2017-09-10T07:08:26.942Z,996.6
2017-09-10T07:09:29.345Z,996.6
2017-09-10T07:10:31.749Z,996.6
2017-09-10T07:11:34.150Z,996.5
2017-09-10T07:12:36.550Z,996.6
2017-09-10T07:13:38.947Z,996.6
2017-09-10T07:14:41.385Z,996.6
2017-09-10T07:15:43.782Z,996.6
2017-09-10T07:16:46.177Z,996.6
2017-09-10T07:17:48.580Z,996.7
2017-09-10T07:18:50.984Z,996.7
2017-09-10T07:19:54.417Z,996.6
2017-09-10T07:20:56.808Z,996.5
2017-09-10T07:21:59.208Z,996.6
2017-09-10T07:23:01.612Z,996.6
2017-09-10T07:24:04.010Z,996.7
2017-09-10T07:25:06.753Z,996.7
2017-09-10T07:26:09.142Z,996.7
2017-09-10T07:27:11.886Z,996.7
2017-09-10T07:28:14.278Z,996.7
2017-09-10T07:29:16.677Z,996.8
2017-09-10T07:30:19.078Z,996.8
2017-09-10T07:31:21.836Z,996.8
2017-09-10T07:32:24.238Z,996.8
2017-09-10T07:33:26.642Z,996.8
2017-09-10T07:34:29.047Z,996.7
2017-09-10T07:35:31.437Z,996.8
2017-09-10T07:36:33.855Z,996.8
2017-09-10T07:37:36.255Z,996.8
2017-09-10T07:38:38.993Z,996.7
2017-09-10T07:39:41.747Z,996.8
2017-09-10T07:40:44.130Z,996.8
2017-09-10T07:41:46.530Z,996.8
2017-09-10T07:42:48.932Z,996.8
2017-09-10T07:43:51.334Z,996.8
2017-09-10T07:44:53.732Z,996.8
2017-09-10T07:45:56.136Z,996.8
2017-09-10T07:46:58.541Z,996.9
2017-09-10T07:48:00.943Z,996.9
2017-09-10T07:49:03.347Z,996.9
2017-09-10T07:50:05.733Z,997
2017-09-10T07:51:08.133Z,997
2017-09-10T07:52:10.529Z,996.9
2017-09-10T07:53:12.953Z,997
2017-09-10T07:54:15.349Z,997
2017-09-10T07:55:17.747Z,997
2017-09-10T07:56:20.485Z,996.9
2017-09-10T07:57:22.882Z,996.9
2017-09-10T07:58:25.290Z,996.9
2017-09-10T07:59:27.677Z,997
2017-09-10T08:00:30.091Z,996.9
2017-09-10T08:01:32.496Z,996.9
2017-09-10T08:02:34.893Z,996.9
2017-09-10T08:03:37.290Z,996.9
2017-09-10T08:04:39.683Z,997
2017-09-10T08:05:42.077Z,996.9
2017-09-10T08:06:44.483Z,997
2017-09-10T08:07:46.885Z,996.9
2017-09-10T08:08:49.308Z,996.9
2017-09-10T08:09:51.705Z,997
2017-09-10T08:10:54.116Z,997
2017-09-10T08:11:56.517Z,997
2017-09-10T08:12:58.920Z,996.9
2017-09-10T08:14:01.319Z,996.9
2017-09-10T08:15:03.722Z,997
2017-09-10T08:16:06.118Z,997
2017-09-10T08:17:08.526Z,997
2017-09-10T08:18:10.930Z,996.9
2017-09-10T08:19:13.329Z,997
2017-09-10T08:20:15.739Z,997
2017-09-10T08:21:18.139Z,997
2017-09-10T08:22:20.536Z,997
2017-09-10T08:23:22.947Z,996.9
2017-09-10T08:24:25.337Z,997
2017-09-10T08:25:27.751Z,997
2017-09-10T08:26:30.150Z,997
2017-09-10T08:27:32.549Z,997.1
2017-09-10T08:28:35.282Z,997.1
2017-09-10T08:29:37.696Z,997.1
2017-09-10T08:30:40.091Z,997.1
2017-09-10T08:31:42.499Z,997
2017-09-10T08:32:45.220Z,997
2017-09-10T08:33:47.628Z,997.1
2017-09-10T08:34:50.382Z,997.1
2017-09-10T08:35:52.781Z,997
2017-09-10T08:36:55.184Z,997.1
2017-09-10T08:37:57.599Z,997
2017-09-10T08:39:00.008Z,997
2017-09-10T08:40:02.404Z,997
2017-09-10T08:41:04.816Z,997
2017-09-10T08:42:07.314Z,996.9
2017-09-10T08:43:09.723Z,996.9
2017-09-10T08:44:12.142Z,996.9
2017-09-10T08:45:14.558Z,996.9
2017-09-10T08:46:16.962Z,996.9
2017-09-10T08:47:19.378Z,996.9
2017-09-10T08:48:21.776Z,996.9
2017-09-10T08:49:24.177Z,996.8
2017-09-10T08:50:26.581Z,996.9
2017-09-10T08:51:28.985Z,996.8
2017-09-10T08:52:31.400Z,996.9
2017-09-10T08:53:33.824Z,996.8
2017-09-10T08:54:36.232Z,996.8
2017-09-10T08:55:38.996Z,996.9
2017-09-10T08:56:41.399Z,996.9
2017-09-10T08:57:43.814Z,996.9
2017-09-10T08:58:46.208Z,996.9
2017-09-10T08:59:48.614Z,996.9
2017-09-10T09:00:51.029Z,996.9
2017-09-10T09:01:53.441Z,996.9
2017-09-10T09:02:55.841Z,996.9
2017-09-10T09:03:58.243Z,996.9
2017-09-10T09:05:01.014Z,996.9
2017-09-10T09:06:03.432Z,996.9
2017-09-10T09:07:06.206Z,996.9
2017-09-10T09:08:08.621Z,996.9
2017-09-10T09:09:11.034Z,996.9
2017-09-10T09:10:13.450Z,996.9
2017-09-10T09:11:15.859Z,996.8
2017-09-10T09:12:18.277Z,996.9
2017-09-10T09:13:20.687Z,996.9
2017-09-10T09:14:23.091Z,996.9
2017-09-10T09:15:25.503Z,996.8
2017-09-10T09:16:27.910Z,996.8
2017-09-10T09:17:30.319Z,996.8
2017-09-10T09:18:33.075Z,996.8
2017-09-10T09:19:35.491Z,996.8
2017-09-10T09:20:37.887Z,996.8
2017-09-10T09:21:40.640Z,996.8
2017-09-10T09:22:43.062Z,996.8
2017-09-10T09:23:45.466Z,996.7
2017-09-10T09:24:47.881Z,996.7
2017-09-10T09:25:50.293Z,996.7
2017-09-10T09:26:53.049Z,996.7
2017-09-10T09:27:55.459Z,996.7
2017-09-10T09:28:57.869Z,996.7
2017-09-10T09:30:00.272Z,996.8
2017-09-10T09:31:02.694Z,996.7
2017-09-10T09:32:05.105Z,996.7
2017-09-10T09:33:07.515Z,996.7
2017-09-10T09:34:09.930Z,996.8
2017-09-10T09:35:12.332Z,996.7
2017-09-10T09:36:14.769Z,996.7
2017-09-10T09:37:17.183Z,996.7
2017-09-10T09:38:19.589Z,996.7
2017-09-10T09:39:22.028Z,996.7
2017-09-10T09:40:24.429Z,996.7
2017-09-10T09:41:26.863Z,996.7
2017-09-10T09:42:29.265Z,996.7
2017-09-10T09:43:32.019Z,996.7
2017-09-10T09:44:34.435Z,996.6
2017-09-10T09:45:36.853Z,996.7
2017-09-10T09:46:39.257Z,996.7
2017-09-10T09:47:41.674Z,996.7
2017-09-10T09:48:44.089Z,996.8
2017-09-10T09:49:46.502Z,996.8
2017-09-10T09:50:48.919Z,996.8
2017-09-10T09:51:51.344Z,996.7
2017-09-10T09:52:54.087Z,996.8
2017-09-10T09:53:56.502Z,996.8
2017-09-10T09:54:58.907Z,996.7
2017-09-10T09:56:01.318Z,996.7
2017-09-10T09:57:03.744Z,996.7
2017-09-10T09:58:06.151Z,996.7
2017-09-10T09:59:08.566Z,996.7
2017-09-10T10:00:10.973Z,996.8
2017-09-10T10:01:13.384Z,996.8
2017-09-10T10:02:15.794Z,996.8
2017-09-10T10:03:18.212Z,996.7
2017-09-10T10:04:20.617Z,996.8
2017-09-10T10:05:23.363Z,996.8
2017-09-10T10:06:25.773Z,996.7
2017-09-10T10:07:28.180Z,996.7
2017-09-10T10:08:30.584Z,996.7
2017-09-10T10:09:32.989Z,996.7
2017-09-10T10:10:35.413Z,996.7
2017-09-10T10:11:37.827Z,996.7
2017-09-10T10:12:40.230Z,996.7
2017-09-10T10:13:42.644Z,996.7
2017-09-10T10:14:45.052Z,996.8
2017-09-10T10:15:47.467Z,996.8
2017-09-10T10:16:49.887Z,996.8
2017-09-10T10:17:52.292Z,996.7
2017-09-10T10:18:55.057Z,996.8
2017-09-10T10:19:57.826Z,996.8
2017-09-10T10:21:00.229Z,996.8
2017-09-10T10:22:02.636Z,996.8
2017-09-10T10:23:05.046Z,996.8
2017-09-10T10:24:07.453Z,996.8
2017-09-10T10:25:09.867Z,996.7
2017-09-10T10:26:12.270Z,996.7
2017-09-10T10:27:14.683Z,996.8
2017-09-10T10:28:17.101Z,996.7
2017-09-10T10:29:19.513Z,996.8
2017-09-10T10:30:21.918Z,996.7
2017-09-10T10:31:24.346Z,996.8
2017-09-10T10:32:26.751Z,996.8
2017-09-10T10:33:29.161Z,996.8
2017-09-10T10:34:31.572Z,996.8
2017-09-10T10:35:34.003Z,996.7
2017-09-10T10:36:36.405Z,996.7
2017-09-10T10:37:38.820Z,996.8
2017-09-10T10:38:41.231Z,996.8
2017-09-10T10:39:43.627Z,996.8
2017-09-10T10:40:46.039Z,996.7
2017-09-10T10:41:48.459Z,996.7
2017-09-10T10:42:50.870Z,996.7
2017-09-10T10:43:53.602Z,996.7
2017-09-10T10:44:56.023Z,996.8
2017-09-10T10:45:58.432Z,996.8
2017-09-10T10:47:00.847Z,996.8
2017-09-10T10:48:03.256Z,996.8
2017-09-10T10:49:05.664Z,996.8
2017-09-10T10:50:08.066Z,996.8
2017-09-10T10:51:10.830Z,996.8
2017-09-10T10:52:13.224Z,996.7
2017-09-10T10:53:15.988Z,996.8
2017-09-10T10:54:18.399Z,996.8
2017-09-10T10:55:20.801Z,996.8
2017-09-10T10:56:23.215Z,996.8
2017-09-10T10:57:25.630Z,996.8
2017-09-10T10:58:28.033Z,996.8
2017-09-10T10:59:30.446Z,996.8
2017-09-10T11:00:32.868Z,996.8
2017-09-10T11:01:35.270Z,996.8
2017-09-10T11:02:37.701Z,996.8
2017-09-10T11:03:40.108Z,996.7
2017-09-10T11:04:42.510Z,996.7
2017-09-10T11:05:44.919Z,996.6
2017-09-10T11:06:47.328Z,996.6
2017-09-10T11:07:49.744Z,996.6
2017-09-10T11:08:52.152Z,996.6
2017-09-10T11:09:54.564Z,996.5
2017-09-10T11:10:56.975Z,996.5
2017-09-10T11:11:59.382Z,996.6
2017-09-10T11:13:02.130Z,996.5
2017-09-10T11:14:04.532Z,996.6
2017-09-10T11:15:06.939Z,996.6
2017-09-10T11:16:09.344Z,996.6
2017-09-10T11:17:11.766Z,996.6
2017-09-10T11:18:14.168Z,996.5
2017-09-10T11:19:16.579Z,996.6
2017-09-10T11:20:18.987Z,996.6
2017-09-10T11:21:21.396Z,996.5
2017-09-10T11:22:23.814Z,996.6
2017-09-10T11:23:26.221Z,996.6
2017-09-10T11:24:28.637Z,996.6
2017-09-10T11:25:31.046Z,996.6
2017-09-10T11:26:33.449Z,996.6
2017-09-10T11:27:35.872Z,996.6
2017-09-10T11:28:38.290Z,996.4
2017-09-10T11:29:40.691Z,996.5
2017-09-10T11:30:43.102Z,996.5
2017-09-10T11:31:45.518Z,996.4
2017-09-10T11:32:47.929Z,996.4
2017-09-10T11:33:50.340Z,996.5
2017-09-10T11:34:52.776Z,996.5
2017-09-10T11:35:55.172Z,996.5
2017-09-10T11:36:57.595Z,996.5
2017-09-10T11:38:00.009Z,996.5
2017-09-10T11:39:02.759Z,996.4
2017-09-10T11:40:05.183Z,996.4
2017-09-10T11:41:07.932Z,996.5
2017-09-10T11:42:10.342Z,996.4
2017-09-10T11:43:12.744Z,996.4
2017-09-10T11:44:15.496Z,996.6
2017-09-10T11:45:17.909Z,996.4
2017-09-10T11:46:20.311Z,996.5
2017-09-10T11:47:23.074Z,996.4
2017-09-10T11:48:25.589Z,996.4
2017-09-10T11:49:28.003Z,996.5
2017-09-10T11:50:30.420Z,996.4
2017-09-10T11:51:32.825Z,996.4
2017-09-10T11:52:35.243Z,996.2
2017-09-10T11:53:37.660Z,996.4
2017-09-10T11:54:40.074Z,996.3
2017-09-10T11:55:42.487Z,996.3
2017-09-10T11:56:44.901Z,996.4
2017-09-10T11:57:47.309Z,996.3
2017-09-10T11:58:49.729Z,996.3
2017-09-10T11:59:52.151Z,996.4
2017-09-10T12:00:54.559Z,996.4
2017-09-10T12:01:56.965Z,996.4
2017-09-10T12:02:59.374Z,996.4
2017-09-10T12:04:01.788Z,996.3
2017-09-10T12:05:04.212Z,996.3
2017-09-10T12:06:06.637Z,996.4
2017-09-10T12:07:09.040Z,996.3
2017-09-10T12:08:11.452Z,996.4
2017-09-10T12:09:13.863Z,996.4
2017-09-10T12:10:16.281Z,996.4
2017-09-10T12:11:18.687Z,996.3
2017-09-10T12:12:21.158Z,996.3
2017-09-10T12:13:23.564Z,996.3
2017-09-10T12:14:25.979Z,996.3
2017-09-10T12:15:28.397Z,996.3
2017-09-10T12:16:30.810Z,996.3
2017-09-10T12:17:33.232Z,996.4
2017-09-10T12:18:35.666Z,996.3
2017-09-10T12:19:38.068Z,996.3
2017-09-10T12:20:40.477Z,996.3
2017-09-10T12:21:42.882Z,996.3
2017-09-10T12:22:45.295Z,996.3
2017-09-10T12:23:47.704Z,996.2
2017-09-10T12:24:50.122Z,996.3
2017-09-10T12:25:52.545Z,996.3
2017-09-10T12:26:54.953Z,996.3
2017-09-10T12:27:57.371Z,996.2
2017-09-10T12:29:00.128Z,996.3
2017-09-10T12:30:02.545Z,996.3
2017-09-10T12:31:05.292Z,996.4
2017-09-10T12:32:07.706Z,996.3
2017-09-10T12:33:10.134Z,996.3
2017-09-10T12:34:12.548Z,996.2
2017-09-10T12:35:15.297Z,996.3
2017-09-10T12:36:17.717Z,996.3
2017-09-10T12:37:20.130Z,996.3
2017-09-10T12:38:22.535Z,996.3
2017-09-10T12:39:24.944Z,996.3
2017-09-10T12:40:27.354Z,996.4
2017-09-10T12:41:30.146Z,996.3
2017-09-10T12:42:32.546Z,996.3
2017-09-10T12:43:34.968Z,996.3
2017-09-10T12:44:37.372Z,996.3
2017-09-10T12:45:39.785Z,996.3
2017-09-10T12:46:42.194Z,996.3
2017-09-10T12:47:44.608Z,996.3
2017-09-10T12:48:47.015Z,996.3
2017-09-10T12:49:49.451Z,996.3
2017-09-10T12:50:51.856Z,996.3
2017-09-10T12:51:54.270Z,996.3
2017-09-10T12:52:56.675Z,996.2
2017-09-10T12:53:59.089Z,996.2
2017-09-10T12:55:01.500Z,996.2
2017-09-10T12:56:03.914Z,996.2
2017-09-10T12:57:06.330Z,996.2
2017-09-10T12:58:08.749Z,996.2
2017-09-10T12:59:11.162Z,996.2
2017-09-10T13:00:13.578Z,996.2
2017-09-10T13:01:15.995Z,996.2
2017-09-10T13:02:18.411Z,996.2
2017-09-10T13:03:20.823Z,996.2
2017-09-10T13:04:23.234Z,996.2
2017-09-10T13:05:25.642Z,996.2
2017-09-10T13:06:28.044Z,996.1
2017-09-10T13:07:30.459Z,996.1
2017-09-10T13:08:32.884Z,996.1
2017-09-10T13:09:35.296Z,996.1
2017-09-10T13:10:37.746Z,996.2
2017-09-10T13:11:40.156Z,996.1
2017-09-10T13:12:42.572Z,996.1
2017-09-10T13:13:44.991Z,996.2
2017-09-10T13:14:47.403Z,996.1
2017-09-10T13:15:49.807Z,996.1
2017-09-10T13:16:52.218Z,996.1
2017-09-10T13:17:54.634Z,996.2
2017-09-10T13:18:57.052Z,996.1
2017-09-10T13:19:59.473Z,996.1
2017-09-10T13:21:02.232Z,996.1
2017-09-10T13:22:04.643Z,996
2017-09-10T13:23:07.062Z,996.1
2017-09-10T13:24:09.477Z,996.1
2017-09-10T13:25:11.880Z,996.1
2017-09-10T13:26:14.626Z,996
2017-09-10T13:27:17.032Z,996
2017-09-10T13:28:19.457Z,996
2017-09-10T13:29:21.911Z,996
2017-09-10T13:30:24.318Z,996